createdAt,value
2018-12-22T00:01:36.948Z,85.25
2018-12-22T00:04:05.293Z,84.23
2018-12-22T00:06:33.557Z,84.31
2018-12-22T00:09:03.135Z,84.04
2018-12-22T00:11:31.785Z,84.43
2018-12-22T00:14:00.039Z,84.04
2018-12-22T00:16:28.593Z,84.48
2018-12-22T00:18:56.887Z,84.28
2018-12-22T00:21:25.648Z,84.04
2018-12-22T00:23:54.528Z,83.99
2018-12-22T00:26:23.178Z,83.95
2018-12-22T00:28:51.818Z,85.34
2018-12-22T00:31:21.897Z,85.21
2018-12-22T00:33:50.188Z,86.05
2018-12-22T00:36:19.106Z,87.24
2018-12-22T00:38:47.364Z,86.45
2018-12-22T00:41:16.322Z,88.20
2018-12-22T00:43:44.998Z,87.65
2018-12-22T00:46:13.279Z,87.71
2018-12-22T00:48:41.529Z,87.73
2018-12-22T00:51:10.061Z,88.18
2018-12-22T00:53:38.317Z,87.55
2018-12-22T00:56:06.787Z,88.01
2018-12-22T00:58:35.378Z,88.59
2018-12-22T01:01:03.655Z,87.87
2018-12-22T01:03:32.114Z,88.17
2018-12-22T01:06:00.750Z,88.48
2018-12-22T01:08:29.615Z,89.02
2018-12-22T01:10:58.223Z,89.11
2018-12-22T01:13:27.083Z,89.97
2018-12-22T01:15:55.359Z,89.74
2018-12-22T01:18:23.571Z,90.33
2018-12-22T01:20:52.025Z,90.02
2018-12-22T01:23:20.600Z,90.37
2018-12-22T01:25:48.845Z,90.87
2018-12-22T01:28:17.153Z,90.35
2018-12-22T01:30:45.455Z,90.43
2018-12-22T01:33:13.730Z,90.57
2018-12-22T01:35:41.980Z,90.45
2018-12-22T01:38:10.488Z,89.78
2018-12-22T01:40:39.356Z,89.63
2018-12-22T01:43:07.885Z,89.80
2018-12-22T01:45:36.153Z,90.56
2018-12-22T01:48:04.697Z,89.44
2018-12-22T01:50:33.079Z,88.96
2018-12-22T01:53:01.378Z,89.16
2018-12-22T01:55:30.251Z,89.26
2018-12-22T01:57:58.727Z,89.23
2018-12-22T02:03:06.138Z,88.92
2018-12-22T02:05:34.695Z,89.36
2018-12-22T02:08:02.995Z,89.86
2018-12-22T02:10:31.265Z,90.14
2018-12-22T02:12:59.813Z,89.29
2018-12-22T02:15:28.341Z,90.20
2018-12-22T02:17:59.123Z,90.20
2018-12-22T02:20:27.862Z,89.65
2018-12-22T02:22:56.654Z,90.14
2018-12-22T02:25:24.997Z,89.31
2018-12-22T02:27:53.370Z,89.88
2018-12-22T02:30:22.214Z,90.42
2018-12-22T02:32:50.767Z,89.79
2018-12-22T02:35:19.075Z,89.98
2018-12-22T02:37:47.730Z,91.20
2018-12-22T02:40:16.089Z,90.81
2018-12-22T02:42:44.795Z,90.61
2018-12-22T02:45:13.435Z,90.67
2018-12-22T02:47:41.936Z,90.14
2018-12-22T02:50:11.023Z,90.05
2018-12-22T02:52:39.325Z,90.13
2018-12-22T02:55:07.736Z,90.73
2018-12-22T02:57:36.053Z,90.41
2018-12-22T03:02:47.488Z,90.37
2018-12-22T03:05:15.967Z,90.67
2018-12-22T03:07:44.919Z,90.15
2018-12-22T03:10:13.826Z,89.96
2018-12-22T03:12:42.693Z,90.19
2018-12-22T03:15:11.235Z,90.83
2018-12-22T03:17:39.542Z,90.33
2018-12-22T03:20:08.134Z,90.18
2018-12-22T03:22:36.781Z,89.60
2018-12-22T03:25:05.271Z,90.53
2018-12-22T03:27:33.553Z,90.87
2018-12-22T03:30:01.833Z,91.30
2018-12-22T03:32:30.326Z,91.69
2018-12-22T03:34:58.922Z,92.20
2018-12-22T03:37:27.886Z,92.69
2018-12-22T03:39:56.478Z,93.64
2018-12-22T03:42:25.029Z,92.97
2018-12-22T03:44:53.299Z,92.59
2018-12-22T03:47:21.537Z,92.05
2018-12-22T03:49:50.070Z,91.64
2018-12-22T03:52:20.179Z,91.49
2018-12-22T03:54:50.423Z,92.27
2018-12-22T03:57:19.066Z,91.24
2018-12-22T03:59:47.369Z,92.09
2018-12-22T04:02:15.959Z,91.26
2018-12-22T04:04:44.260Z,89.28
2018-12-22T04:07:12.915Z,85.73
2018-12-22T04:09:41.194Z,85.39
2018-12-22T04:12:09.421Z,84.39
2018-12-22T04:14:38.332Z,83.62
2018-12-22T04:17:07.888Z,83.80
2018-12-22T04:19:36.542Z,83.33
2018-12-22T04:22:04.795Z,84.09
2018-12-22T04:24:33.045Z,83.93
2018-12-22T04:27:01.618Z,83.67
2018-12-22T04:29:34.062Z,82.96
2018-12-22T04:32:00.286Z,83.06
2018-12-22T04:34:28.482Z,83.80
2018-12-22T04:36:56.851Z,82.95
2018-12-22T04:39:25.293Z,83.53
2018-12-22T04:41:53.855Z,83.11
2018-12-22T04:44:22.020Z,82.15
2018-12-22T04:46:50.280Z,82.69
2018-12-22T04:49:18.501Z,81.94
2018-12-22T04:51:47.822Z,82.61
2018-12-22T04:54:16.055Z,82.11
2018-12-22T04:56:44.537Z,82.15
2018-12-22T04:59:12.777Z,81.17
2018-12-22T05:01:41.082Z,81.75
2018-12-22T05:04:09.582Z,81.43
2018-12-22T05:06:38.070Z,82.33
2018-12-22T05:09:06.990Z,80.92
2018-12-22T05:11:35.366Z,80.77
2018-12-22T05:14:03.957Z,80.38
2018-12-22T05:16:32.514Z,80.12
2018-12-22T05:19:01.483Z,79.92
2018-12-22T05:21:30.010Z,78.78
2018-12-22T05:23:58.311Z,78.76
2018-12-22T05:26:27.174Z,78.13
2018-12-22T05:28:55.771Z,76.61
2018-12-22T05:31:23.992Z,76.28
2018-12-22T05:33:52.237Z,75.87
2018-12-22T05:36:20.450Z,75.82
2018-12-22T05:38:49.974Z,75.56
2018-12-22T05:41:19.823Z,74.91
2018-12-22T05:43:48.577Z,75.01
2018-12-22T05:46:17.378Z,74.65
2018-12-22T05:48:45.643Z,75.14
2018-12-22T05:51:13.923Z,74.99
2018-12-22T05:53:42.171Z,74.56
2018-12-22T05:56:10.434Z,75.41
2018-12-22T05:58:39.062Z,75.06
2018-12-22T06:01:07.433Z,73.66
2018-12-22T06:03:36.083Z,73.76
2018-12-22T06:06:04.441Z,73.52
2018-12-22T06:08:32.721Z,73.60
2018-12-22T06:11:01.398Z,73.12
2018-12-22T06:13:31.140Z,72.87
2018-12-22T06:15:59.375Z,72.36
2018-12-22T06:18:27.637Z,72.05
2018-12-22T06:20:55.893Z,72.83
2018-12-22T06:23:26.657Z,73.49
2018-12-22T06:25:54.630Z,74.64
2018-12-22T06:28:23.130Z,75.21
2018-12-22T06:30:51.388Z,77.84
2018-12-22T06:33:20.338Z,78.68
2018-12-22T06:35:48.736Z,78.58
2018-12-22T06:38:16.979Z,80.00
2018-12-22T06:40:45.197Z,78.57
2018-12-22T06:43:13.433Z,78.80
2018-12-22T06:45:42.054Z,78.90
2018-12-22T06:48:11.113Z,78.32
2018-12-22T06:50:39.353Z,77.44
2018-12-22T06:53:07.747Z,78.27
2018-12-22T06:55:38.984Z,77.88
2018-12-22T06:58:07.578Z,77.11
2018-12-22T07:00:36.212Z,76.21
2018-12-22T07:03:06.594Z,76.74
2018-12-22T07:05:35.184Z,76.78
2018-12-22T07:08:03.695Z,76.94
2018-12-22T07:10:31.952Z,76.37
2018-12-22T07:13:00.385Z,75.39
2018-12-22T07:15:28.613Z,74.90
2018-12-22T07:17:56.902Z,74.13
2018-12-22T07:20:25.793Z,73.94
2018-12-22T07:22:54.139Z,74.20
2018-12-22T07:25:22.865Z,74.37
2018-12-22T07:27:51.146Z,75.42
2018-12-22T07:30:26.103Z,75.86
2018-12-22T07:32:56.876Z,77.73
2018-12-22T07:35:20.882Z,79.13
2018-12-22T07:37:49.364Z,80.68
2018-12-22T07:40:17.747Z,80.41
2018-12-22T07:42:46.044Z,81.02
2018-12-22T07:45:15.208Z,81.69
2018-12-22T07:47:43.795Z,82.21
2018-12-22T07:50:12.066Z,83.16
2018-12-22T07:52:40.953Z,83.36
2018-12-22T07:55:09.189Z,83.33
2018-12-22T07:57:37.781Z,82.40
2018-12-22T08:00:06.265Z,82.88
2018-12-22T08:02:34.521Z,84.13
2018-12-22T08:05:03.003Z,83.66
2018-12-22T08:07:31.234Z,83.03
2018-12-22T08:10:00.020Z,82.64
2018-12-22T08:12:28.347Z,81.48
2018-12-22T08:14:56.982Z,81.60
2018-12-22T08:17:26.560Z,80.58
2018-12-22T08:19:55.467Z,78.74
2018-12-22T08:22:24.272Z,78.25
2018-12-22T08:24:52.820Z,78.47
2018-12-22T08:27:21.045Z,77.50
2018-12-22T08:29:49.733Z,77.30
2018-12-22T08:32:18.089Z,76.79
2018-12-22T08:34:48.245Z,76.33
2018-12-22T08:37:16.774Z,76.09
2018-12-22T08:39:45.185Z,75.53
2018-12-22T08:42:14.786Z,74.60
2018-12-22T08:44:44.347Z,74.26
2018-12-22T08:47:13.555Z,75.26
2018-12-22T08:49:41.791Z,75.67
2018-12-22T08:52:10.402Z,76.67
2018-12-22T08:54:38.839Z,78.42
2018-12-22T08:57:07.062Z,79.28
2018-12-22T08:59:35.317Z,80.06
2018-12-22T09:02:03.686Z,80.38
2018-12-22T09:04:32.271Z,80.26
2018-12-22T09:07:00.627Z,80.28
2018-12-22T09:09:29.438Z,80.71
2018-12-22T09:11:58.352Z,79.60
2018-12-22T09:14:27.973Z,80.55
2018-12-22T09:16:56.381Z,80.22
2018-12-22T09:19:25.205Z,81.01
2018-12-22T09:21:53.497Z,81.84
2018-12-22T09:24:22.698Z,82.12
2018-12-22T09:26:51.256Z,83.34
2018-12-22T09:29:19.740Z,82.78
2018-12-22T09:31:48.290Z,83.61
2018-12-22T09:34:17.061Z,82.02
2018-12-22T09:36:46.503Z,82.61
2018-12-22T09:39:15.005Z,82.25
2018-12-22T09:41:43.221Z,81.19
2018-12-22T09:44:11.834Z,82.11
2018-12-22T09:46:41.601Z,81.88
2018-12-22T09:49:09.868Z,80.95
2018-12-22T09:51:38.098Z,79.76
2018-12-22T09:54:06.429Z,79.95
2018-12-22T09:56:34.926Z,78.50
2018-12-22T09:59:03.244Z,78.24
2018-12-22T10:01:31.520Z,78.76
2018-12-22T10:04:00.114Z,78.73
2018-12-22T10:06:31.402Z,77.65
2018-12-22T10:09:00.106Z,78.01
2018-12-22T10:11:28.915Z,77.28
2018-12-22T10:13:57.721Z,77.44
2018-12-22T10:16:25.998Z,75.95
2018-12-22T10:18:54.560Z,75.42
2018-12-22T10:21:23.889Z,75.62
2018-12-22T10:23:53.612Z,74.99
2018-12-22T10:26:21.908Z,73.10
2018-12-22T10:28:50.722Z,73.26
2018-12-22T10:31:20.676Z,73.87
2018-12-22T10:33:49.634Z,73.54
2018-12-22T10:36:17.885Z,72.61
2018-12-22T10:38:46.495Z,72.57
2018-12-22T10:41:15.519Z,72.20
2018-12-22T10:43:44.397Z,71.34
2018-12-22T10:46:15.015Z,70.34
2018-12-22T10:48:44.030Z,70.40
2018-12-22T10:51:14.122Z,70.41
2018-12-22T10:53:44.376Z,70.39
2018-12-22T10:56:13.140Z,70.22
2018-12-22T10:58:41.841Z,69.99
2018-12-22T11:01:11.612Z,68.97
2018-12-22T11:03:39.924Z,69.63
2018-12-22T11:06:08.197Z,70.11
2018-12-22T11:08:37.695Z,69.56
2018-12-22T11:11:06.368Z,70.62
2018-12-22T11:13:36.860Z,70.09
2018-12-22T11:16:05.707Z,70.13
2018-12-22T11:18:34.578Z,69.98
2018-12-22T11:21:03.509Z,68.28
2018-12-22T11:23:32.090Z,68.13
2018-12-22T11:26:00.742Z,67.65
2018-12-22T11:28:29.561Z,68.68
2018-12-22T11:30:58.478Z,69.17
2018-12-22T11:33:26.781Z,70.74
2018-12-22T11:35:56.200Z,69.20
2018-12-22T11:38:24.684Z,72.31
2018-12-22T11:40:52.931Z,74.04
2018-12-22T11:43:21.172Z,76.81
2018-12-22T11:45:49.538Z,78.39
2018-12-22T11:48:31.728Z,80.69
2018-12-22T11:51:00.070Z,82.90
2018-12-22T11:53:28.833Z,85.04
2018-12-22T11:55:57.114Z,85.58
2018-12-22T11:58:26.491Z,85.59
2018-12-22T12:00:56.309Z,83.31
2018-12-22T12:03:25.231Z,83.88
2018-12-22T12:05:53.958Z,83.18
2018-12-22T12:08:23.385Z,82.77
2018-12-22T12:10:53.303Z,81.80
2018-12-22T12:13:24.513Z,82.46
2018-12-22T12:16:14.816Z,80.36
2018-12-22T12:18:55.148Z,80.33
2018-12-22T12:21:23.961Z,79.21
2018-12-22T12:23:53.087Z,78.49
2018-12-22T12:26:21.340Z,79.09
2018-12-22T12:28:49.915Z,79.57
2018-12-22T12:31:18.363Z,77.40
2018-12-22T12:33:49.373Z,77.09
2018-12-22T12:36:18.120Z,75.86
2018-12-22T12:38:47.867Z,75.11
2018-12-22T12:41:16.624Z,75.23
2018-12-22T12:43:45.086Z,73.33
2018-12-22T12:46:14.282Z,72.83
2018-12-22T12:48:42.782Z,71.82
2018-12-22T12:51:11.041Z,71.10
2018-12-22T12:53:39.763Z,71.87
2018-12-22T12:56:09.925Z,71.80
2018-12-22T12:58:38.160Z,70.89
2018-12-22T13:01:07.399Z,70.10
2018-12-22T13:03:35.810Z,68.79
2018-12-22T13:06:04.976Z,68.50
2018-12-22T13:08:33.406Z,69.21
2018-12-22T13:11:02.962Z,70.20
2018-12-22T13:13:43.607Z,68.41
2018-12-22T13:16:12.377Z,68.80
2018-12-22T13:18:40.657Z,64.39
2018-12-22T13:21:10.218Z,57.86
2018-12-22T13:23:38.565Z,53.80
2018-12-22T13:26:07.650Z,54.71
2018-12-22T13:28:37.159Z,53.04
2018-12-22T13:31:05.411Z,58.59
2018-12-22T13:33:34.093Z,62.47
2018-12-22T13:36:02.739Z,64.71
2018-12-22T13:38:36.389Z,66.63
2018-12-22T13:41:05.043Z,67.98
2018-12-22T13:43:33.598Z,69.05
2018-12-22T13:46:01.936Z,70.29
2018-12-22T13:48:30.681Z,70.68
2018-12-22T13:51:00.297Z,70.05
2018-12-22T13:53:29.014Z,70.30
2018-12-22T13:55:58.509Z,69.83
2018-12-22T13:58:28.546Z,68.77
2018-12-22T14:00:57.181Z,68.27
2018-12-22T14:03:34.203Z,68.51
2018-12-22T14:06:04.122Z,69.68
2018-12-22T14:08:33.546Z,69.07
2018-12-22T14:11:02.317Z,69.27
2018-12-22T14:13:31.739Z,69.33
2018-12-22T14:16:06.679Z,70.93
2018-12-22T14:18:46.439Z,71.29
2018-12-22T14:21:15.623Z,71.85
2018-12-22T14:24:32.624Z,72.21
2018-12-22T14:27:00.935Z,73.29
2018-12-22T14:29:30.169Z,72.61
2018-12-22T14:31:58.379Z,73.53
2018-12-22T14:34:29.897Z,72.34
2018-12-22T14:36:58.454Z,72.34
2018-12-22T14:39:27.003Z,71.19
2018-12-22T14:41:55.895Z,72.15
2018-12-22T14:44:24.533Z,73.31
2018-12-22T14:46:52.968Z,72.79
2018-12-22T14:49:21.268Z,73.37
2018-12-22T14:51:50.194Z,74.27
2018-12-22T14:54:19.056Z,74.34
2018-12-22T14:56:48.015Z,76.13
2018-12-22T14:59:19.618Z,76.03
2018-12-22T15:01:58.174Z,75.96
2018-12-22T15:04:26.765Z,76.23
2018-12-22T15:06:55.041Z,75.90
2018-12-22T15:09:23.310Z,76.14
2018-12-22T15:11:51.932Z,75.94
2018-12-22T15:14:20.563Z,75.88
2018-12-22T15:16:48.943Z,75.80
2018-12-22T15:19:17.523Z,75.92
2018-12-22T15:21:49.730Z,77.18
2018-12-22T15:24:18.082Z,77.26
2018-12-22T15:26:46.643Z,78.35
2018-12-22T15:29:15.681Z,78.20
2018-12-22T15:31:44.239Z,78.55
2018-12-22T15:34:13.415Z,78.94
2018-12-22T15:36:41.778Z,79.67
2018-12-22T15:39:10.576Z,80.61
2018-12-22T15:41:39.913Z,81.32
2018-12-22T15:44:08.917Z,79.84
2018-12-22T15:46:38.217Z,80.63
2018-12-22T15:49:06.420Z,81.82
2018-12-22T15:51:34.653Z,82.29
2018-12-22T15:54:03.284Z,81.56
2018-12-22T15:56:31.626Z,81.61
2018-12-22T15:59:00.249Z,83.58
2018-12-22T16:01:28.841Z,83.25
2018-12-22T16:04:00.037Z,82.68
2018-12-22T16:06:29.884Z,82.53
2018-12-22T16:08:58.362Z,82.12
2018-12-22T16:11:27.301Z,82.86
2018-12-22T16:13:55.526Z,84.02
2018-12-22T16:16:23.974Z,84.39
2018-12-22T16:18:52.705Z,84.89
2018-12-22T16:21:21.044Z,84.37
2018-12-22T16:23:49.721Z,84.27
2018-12-22T16:26:18.653Z,85.73
2018-12-22T16:28:54.452Z,86.14
2018-12-22T16:31:23.081Z,85.98
2018-12-22T16:33:51.627Z,86.24
2018-12-22T16:36:19.883Z,85.79
2018-12-22T16:38:48.537Z,86.24
2018-12-22T16:41:17.105Z,87.37
2018-12-22T16:43:46.007Z,88.21
2018-12-22T16:46:14.985Z,89.37
2018-12-22T16:48:45.831Z,88.94
2018-12-22T16:51:14.565Z,88.33
2018-12-22T16:53:42.967Z,88.85
2018-12-22T16:56:11.269Z,87.73
2018-12-22T16:58:44.518Z,86.70
2018-12-22T17:01:26.037Z,84.99
2018-12-22T17:03:55.581Z,85.93
2018-12-22T17:06:23.891Z,86.56
2018-12-22T17:08:53.037Z,85.59
2018-12-22T17:11:21.213Z,86.17
2018-12-22T17:13:50.239Z,85.61
2018-12-22T17:16:19.529Z,85.24
2018-12-22T17:18:49.571Z,86.20
2018-12-22T17:22:31.722Z,86.98
2018-12-22T17:25:10.673Z,88.54
2018-12-22T17:27:39.181Z,89.15
2018-12-22T17:30:07.850Z,89.39
2018-12-22T17:32:36.207Z,89.48
2018-12-22T17:35:06.505Z,88.68
2018-12-22T17:37:35.306Z,87.81
2018-12-22T17:40:09.107Z,87.38
2018-12-22T17:42:36.202Z,87.33
2018-12-22T17:45:06.512Z,86.61
2018-12-22T17:50:19.134Z,87.62
2018-12-22T17:52:48.259Z,88.25
2018-12-22T17:55:18.223Z,86.45
2018-12-22T17:57:47.099Z,84.38
2018-12-22T18:00:17.897Z,83.55
2018-12-22T18:02:48.086Z,84.61
2018-12-22T18:05:16.649Z,85.29
2018-12-22T18:07:45.804Z,86.66
2018-12-22T18:10:14.645Z,86.26
2018-12-22T18:12:46.473Z,86.07
2018-12-22T18:15:19.757Z,84.78
2018-12-22T18:17:50.925Z,85.66
2018-12-22T18:20:21.668Z,84.04
2018-12-22T18:22:53.440Z,83.33
2018-12-22T18:25:22.461Z,84.63
2018-12-22T18:27:52.912Z,84.42
2018-12-22T18:30:21.759Z,84.77
2018-12-22T18:32:51.787Z,84.71
2018-12-22T18:35:20.260Z,85.54
2018-12-22T18:37:48.917Z,83.22
2018-12-22T18:40:20.442Z,83.81
2018-12-22T18:42:50.565Z,83.09
2018-12-22T18:45:26.065Z,82.24
2018-12-22T18:47:54.500Z,82.01
2018-12-22T18:50:26.223Z,82.06
2018-12-22T18:52:54.771Z,82.03
2018-12-22T18:55:23.387Z,82.16
2018-12-22T18:57:55.182Z,82.45
2018-12-22T19:00:24.553Z,81.39
2018-12-22T19:02:53.048Z,81.82
2018-12-22T19:05:22.515Z,82.85
2018-12-22T19:07:55.909Z,81.60
2018-12-22T19:10:32.879Z,82.10
2018-12-22T19:13:02.432Z,83.23
2018-12-22T19:15:31.091Z,82.94
2018-12-22T19:17:59.753Z,81.59
2018-12-22T19:20:33.789Z,79.35
2018-12-22T19:23:02.488Z,79.74
2018-12-22T19:25:31.164Z,77.85
2018-12-22T19:27:59.642Z,77.63
2018-12-22T19:30:27.992Z,78.01
2018-12-22T19:32:56.614Z,78.14
2018-12-22T19:35:25.356Z,77.68
2018-12-22T19:37:53.775Z,76.65
2018-12-22T19:40:22.158Z,76.84
2018-12-22T19:42:51.944Z,77.54
2018-12-22T19:45:21.093Z,78.12
2018-12-22T19:47:51.020Z,76.83
2018-12-22T19:50:19.794Z,76.94
2018-12-22T19:52:49.175Z,76.97
2018-12-22T19:57:56.835Z,77.90
2018-12-22T20:00:26.265Z,78.16
2018-12-22T20:02:57.312Z,77.19
2018-12-22T20:05:26.118Z,76.50
2018-12-22T20:07:55.114Z,76.83
2018-12-22T20:10:23.463Z,76.92
2018-12-22T20:12:52.840Z,76.30
2018-12-22T20:15:22.197Z,77.33
2018-12-22T20:17:51.131Z,76.30
2018-12-22T20:20:21.819Z,78.12
2018-12-22T20:22:51.774Z,76.35
2018-12-22T20:25:20.308Z,76.76
2018-12-22T20:27:49.808Z,76.85
2018-12-22T20:30:18.302Z,75.57
2018-12-22T20:32:46.849Z,75.55
2018-12-22T20:35:15.398Z,75.60
2018-12-22T20:37:43.833Z,75.91
2018-12-22T20:40:13.529Z,75.54
2018-12-22T20:42:42.209Z,76.77
2018-12-22T20:45:10.691Z,76.40
2018-12-22T20:47:38.983Z,76.50
2018-12-22T20:50:07.707Z,76.55
2018-12-22T20:52:36.686Z,77.27
2018-12-22T20:55:05.533Z,77.87
2018-12-22T20:57:35.003Z,77.14
2018-12-22T21:00:04.034Z,77.82
2018-12-22T21:02:33.239Z,78.42
2018-12-22T21:05:01.821Z,76.82
2018-12-22T21:07:31.681Z,76.79
2018-12-22T21:09:59.915Z,77.21
2018-12-22T21:12:28.642Z,77.87
2018-12-22T21:14:57.791Z,77.00
2018-12-22T21:17:27.069Z,78.00
2018-12-22T21:19:55.648Z,78.10
2018-12-22T21:22:25.435Z,77.58
2018-12-22T21:24:54.366Z,77.24
2018-12-22T21:27:23.690Z,77.29
2018-12-22T21:29:52.255Z,77.44
2018-12-22T21:32:22.303Z,78.87
2018-12-22T21:34:52.610Z,78.99
2018-12-22T21:37:22.126Z,77.68
2018-12-22T21:39:51.601Z,76.73
2018-12-22T21:42:20.304Z,77.43
2018-12-22T21:44:48.599Z,76.71
2018-12-22T21:47:17.130Z,77.62
2018-12-22T21:49:46.094Z,76.81
2018-12-22T21:52:14.639Z,76.33
2018-12-22T21:54:42.974Z,77.17
2018-12-22T21:57:11.558Z,76.60
2018-12-22T21:59:40.492Z,76.57
2018-12-22T22:02:09.086Z,76.28
2018-12-22T22:04:37.396Z,77.33
2018-12-22T22:07:06.298Z,77.22
2018-12-22T22:09:35.462Z,78.23
2018-12-22T22:12:03.738Z,77.46
2018-12-22T22:14:32.041Z,76.92
2018-12-22T22:17:01.309Z,76.97
2018-12-22T22:19:29.616Z,77.07
2018-12-22T22:21:57.925Z,76.40
2018-12-22T22:24:27.150Z,76.58
2018-12-22T22:26:55.705Z,75.77
2018-12-22T22:29:24.606Z,76.84
2018-12-22T22:31:52.867Z,76.65
2018-12-22T22:34:21.133Z,76.69
2018-12-22T22:36:49.358Z,77.97
2018-12-22T22:39:17.842Z,77.21
2018-12-22T22:41:46.278Z,77.57
2018-12-22T22:44:15.478Z,77.30
2018-12-22T22:46:43.928Z,77.60
2018-12-22T22:49:12.307Z,77.43
2018-12-22T22:51:41.137Z,77.06
2018-12-22T22:54:09.791Z,77.73
2018-12-22T22:56:38.122Z,77.76
2018-12-22T22:59:06.783Z,78.47
2018-12-22T23:01:35.419Z,77.77
2018-12-22T23:04:03.583Z,76.84
2018-12-22T23:06:31.902Z,77.14
2018-12-22T23:09:00.313Z,77.55
2018-12-22T23:11:28.538Z,78.34
2018-12-22T23:16:43.625Z,79.36
2018-12-22T23:19:13.631Z,77.74
2018-12-22T23:21:42.503Z,78.82
2018-12-22T23:24:11.125Z,77.99
2018-12-22T23:26:39.742Z,78.52
2018-12-22T23:29:07.978Z,78.56
2018-12-22T23:31:37.534Z,78.97
2018-12-22T23:34:06.895Z,78.04
2018-12-22T23:36:38.432Z,78.28
2018-12-22T23:39:07.882Z,77.87
2018-12-22T23:41:38.039Z,77.12
2018-12-22T23:44:06.686Z,76.19
2018-12-22T23:46:35.528Z,76.41
2018-12-22T23:49:05.841Z,76.12
2018-12-22T23:51:34.799Z,76.59
2018-12-22T23:54:03.194Z,76.41
2018-12-22T23:56:31.542Z,77.00
2018-12-22T23:59:00.146Z,77.10
